Hlavní strana
METAR-TAF:

METAR-TAF

Letiště :

Sapporo, Japonsko

zeměpisná šířka: 43-07N, zeměpisná délka: 141-23E, výška: 8 m

Aktuální stav počasí

Zpráva byla vytvořena před 7 hodinami a 30 minutami, v 11:00 UTC
Západoseverozápadní vítr 8 kt
Teplota -3°C
Vlhkost vzduchu 100%
Tlak 1021 hPa
Viditelnost: 2000 m
Skoro jasno ve výšce 1000 ft
Oblačno až skoro zataženo ve výšce 1500 ft
Oblačno až skoro zataženo ve výšce 2000 ft
slabé sněhové přeháňky

METAR: RJCO 271100Z 30008KT 2000 -SHSN FEW010 BKN015 BKN020 M03/M03 Q1021

Čas: 03:30 (18:30 UTC)


TAF: chybějící

Stav a předpovědi počasí z více než 4 000 letišť (zprávy METAR a TAF).

Červené a žluté tečky na mapě představují dostupné meteorologické stanice.

Když kurzor umístíte na tečku, zobrazí se název stanice.

Pak kliknutím zobrazíte stav a předpověď počasí.

Chcete-li změnit mapu, kliknutím na zelené tlačítko se znaménkem +mapu přiblížíte, kliknutím na zelené tlačítko se znaménkem – mapu oddálíte a kliknutím na zelené šipky přejdete na sousední mapy.


METAR-TAF: